Urb Georgetown, Puerto Rico
Current Conditions -  °F | °C
As of 3:56 PM on Saturday 20 Dec 2014 (Local Time) from TJSJ Reporting Station
Scattered Clouds Scattered Clouds  
Wind Chill: 83°   Ceiling: Unl
Heat Index: 88°   Visibility: 10mi
Dew Point: 72°   Wind: 14mph
Humidity: 69%   Direction: 50°NE
Pressure: 29.98"   Gusts: NA
Location:  18.3882°N, 66.1144°W
Report Text: TJSJ 201956Z 05012KT 10SM FEW022 SCT040 SCT090 28/22 A2998 RMK AO2 SLP150 P0001 T02830222
Loading
Personal Weather Stations






























Interactive Weather Map New forecast layout! Learn more

10-Day Weather Forecast

Advertisements
Track Severe Weather on mobile